Terminal Aerodrome Forecast
Issued by NWS

Current Version | Previous Version | Text Only | Print | Product List | Glossary On
Versions: 1 2 3 4 5 6 7 8 9 10 11 12 13 14 15 16 17 18 19 20 21 22 23 24 25 26 27
000
FTUS46 KMTR 280600 AAA
TAFSFO
TAF AMD
KSFO 280644Z 2807/2912 29008KT 6SM BR FEW004
     FM280700 27006KT 2SM BCFG BR SCT003
      TEMPO 2810/2814 VRB03KT 1/4SM FG OVC001
     FM281800 22007KT 4SM BR FEW009 SCT050 BKN150
     FM290300 18008G16KT 6SM BR SCT050 BKN100 PROB30 2903/2906 -RA
      OVC050
     FM290600 18008G16KT 4SM -RA BR OVC030=

USA.gov is the U.S. government's official web portal to all federal, state and local government web resources and services.